Geroi Shipki — EOIB — position and weather

sailwx.info

Track history (hours):
 
Tides and Currents Weather Stations Pressure Air Temp Water Temp Dewpoint Dewpoint Depression Visibility Wind Speed Wind Dir Waves Ship Positions

Geroi Shipki

Last reported at 2014-Dec-18 19:07 UTC. Time now 2014-Dec-20 05:54 UTC.
Position N 42°37' E 039°39'.

Length 184 m; draft 6.2 m.

Type: Cargo ship. MMSI: 272976000.

Date/timePositionNaut miles runAvg speedWind from/ knotsBaromVisibWave heightAir tempDewpointWater temp
2014-Dec-18 19:07N 42°37' E 039°39'4 6.4
2014-Dec-18 18:33N 42°39' E 039°34'7 6.8
2014-Dec-18 17:33N 42°41' E 039°26'7 7.0
2014-Dec-18 16:31N 42°43' E 039°16'6 6.6
2014-Dec-18 15:33N 42°46' E 039°08'7 6.8
2014-Dec-18 14:31N 42°48' E 038°59'14 6.9
2014-Dec-18 12:33N 42°52' E 038°42'7 7.0
2014-Dec-18 11:33N 42°54' E 038°33'32 7.3
2014-Dec-18 07:15N 43°05' E 037°52'2211.5
2014-Dec-18 05:22N 43°12' E 037°24'3612.4
2014-Dec-18 02:26N 43°24' E 036°37'2312.3
2014-Dec-18 00:33N 43°31' E 036°07'1212.4
2014-Dec-17 23:33N 43°35' E 035°51'1312.5
2014-Dec-17 22:31N 43°39' E 035°34'1212.4
2014-Dec-17 21:33N 43°43' E 035°18'1212.4
2014-Dec-17 20:33N 43°47' E 035°02'1212.3
2014-Dec-17 19:33N 43°52' E 034°46'1211.9
2014-Dec-17 18:33N 43°55' E 034°30'1211.8
2014-Dec-17 17:32N 43°59' E 034°14'1211.5
2014-Dec-17 16:31N 44°03' E 033°59'15710.4
2014-Dec-17 01:31N 45°54' E 031°23'1310.9
2014-Dec-17 00:18N 46°04' E 031°10'811.1
2014-Dec-16 23:33N 46°10' E 031°01'1111.1
2014-Dec-16 22:32N 46°17' E 030°49'12 0.4
2014-Dec-15 16:17N 46°12' E 031°04'10 9.0
2014-Dec-15 15:10N 46°04' E 031°14'8 9.1
2014-Dec-15 14:14N 45°58' E 031°22'163 9.0
2014-Dec-14 20:15N 44°04' E 034°06'912.4
2014-Dec-14 19:33N 44°01' E 034°18'1312.2
2014-Dec-14 18:30N 43°57' E 034°34'1212.0
2014-Dec-14 17:28N 43°53' E 034°51'1112.0
2014-Dec-14 16:33N 43°49' E 035°05'1212.0
2014-Dec-14 15:30N 43°45' E 035°21'1212.1
2014-Dec-14 14:31N 43°41' E 035°37'1512.3
2014-Dec-14 13:17N 43°35' E 035°57'63 9.0
2014-Dec-14 06:19N 43°14' E 037°18'7 9.0
2014-Dec-14 05:33N 43°12' E 037°26'9 9.1
2014-Dec-14 04:33N 43°09' E 037°38'20 8.9
2014-Dec-14 02:21N 43°02' E 038°03'  
Track history (hours):
 
Tides and Currents Weather Stations Pressure Air Temp Water Temp Dewpoint Dewpoint Depression Visibility Wind Speed Wind Dir Waves Ship Positions

Geroi Shipki

Last reported at 2014-Dec-18 19:07 UTC. Time now 2014-Dec-20 05:54 UTC.
Position N 42°37' E 039°39'.

Length 184 m; draft 6.2 m.

Type: Cargo ship. MMSI: 272976000.

Date/timePositionNaut miles runAvg speedWind from/ knotsBaromVisibWave heightAir tempDewpointWater temp
2014-Dec-18 19:07N 42°37' E 039°39'4 6.4
2014-Dec-18 18:33N 42°39' E 039°34'7 6.8
2014-Dec-18 17:33N 42°41' E 039°26'7 7.0
2014-Dec-18 16:31N 42°43' E 039°16'6 6.6
2014-Dec-18 15:33N 42°46' E 039°08'7 6.8
2014-Dec-18 14:31N 42°48' E 038°59'14 6.9
2014-Dec-18 12:33N 42°52' E 038°42'7 7.0
2014-Dec-18 11:33N 42°54' E 038°33'32 7.3
2014-Dec-18 07:15N 43°05' E 037°52'2211.5
2014-Dec-18 05:22N 43°12' E 037°24'3612.4
2014-Dec-18 02:26N 43°24' E 036°37'2312.3
2014-Dec-18 00:33N 43°31' E 036°07'1212.4
2014-Dec-17 23:33N 43°35' E 035°51'1312.5
2014-Dec-17 22:31N 43°39' E 035°34'1212.4
2014-Dec-17 21:33N 43°43' E 035°18'1212.4
2014-Dec-17 20:33N 43°47' E 035°02'1212.3
2014-Dec-17 19:33N 43°52' E 034°46'1211.9
2014-Dec-17 18:33N 43°55' E 034°30'1211.8
2014-Dec-17 17:32N 43°59' E 034°14'1211.5
2014-Dec-17 16:31N 44°03' E 033°59'15710.4
2014-Dec-17 01:31N 45°54' E 031°23'1310.9
2014-Dec-17 00:18N 46°04' E 031°10'811.1
2014-Dec-16 23:33N 46°10' E 031°01'1111.1
2014-Dec-16 22:32N 46°17' E 030°49'12 0.4
2014-Dec-15 16:17N 46°12' E 031°04'10 9.0
2014-Dec-15 15:10N 46°04' E 031°14'8 9.1
2014-Dec-15 14:14N 45°58' E 031°22'163 9.0
2014-Dec-14 20:15N 44°04' E 034°06'912.4
2014-Dec-14 19:33N 44°01' E 034°18'1312.2
2014-Dec-14 18:30N 43°57' E 034°34'1212.0
2014-Dec-14 17:28N 43°53' E 034°51'1112.0
2014-Dec-14 16:33N 43°49' E 035°05'1212.0
2014-Dec-14 15:30N 43°45' E 035°21'1212.1
2014-Dec-14 14:31N 43°41' E 035°37'1512.3
2014-Dec-14 13:17N 43°35' E 035°57'63 9.0
2014-Dec-14 06:19N 43°14' E 037°18'7 9.0
2014-Dec-14 05:33N 43°12' E 037°26'9 9.1
2014-Dec-14 04:33N 43°09' E 037°38'20 8.9
2014-Dec-14 02:21N 43°02' E 038°03'  

Dump ship's entire track history